createdAt,value
2023-11-18T00:02:03.384Z,53.05
2023-11-18T00:04:30.139Z,52.73
2023-11-18T00:06:58.568Z,51.03
2023-11-18T00:09:25.941Z,56.70
2023-11-18T00:11:52.699Z,52.05
2023-11-18T00:14:19.642Z,59.28
2023-11-18T00:16:46.250Z,60.83
2023-11-18T00:19:13.353Z,55.22
2023-11-18T00:21:39.900Z,57.50
2023-11-18T00:24:06.988Z,57.55
2023-11-18T00:26:33.651Z,64.20
2023-11-18T00:29:01.852Z,57.10
2023-11-18T00:31:28.726Z,61.03
2023-11-18T00:33:55.669Z,61.55
2023-11-18T00:36:22.427Z,63.05
2023-11-18T00:38:50.451Z,63.33
2023-11-18T00:41:18.794Z,67.73
2023-11-18T00:43:46.051Z,64.13
2023-11-18T00:46:12.860Z,67.35
2023-11-18T00:48:39.889Z,65.63
2023-11-18T00:51:09.816Z,63.08
2023-11-18T00:53:36.605Z,67.97
2023-11-18T00:56:03.537Z,62.63
2023-11-18T00:58:31.452Z,60.97
2023-11-18T01:00:58.195Z,68.22
2023-11-18T01:03:25.422Z,65.57
2023-11-18T01:05:52.256Z,64.33
2023-11-18T01:08:18.899Z,64.63
2023-11-18T01:10:45.967Z,62.17
2023-11-18T01:13:12.826Z,62.70
2023-11-18T01:15:39.557Z,69.53
2023-11-18T01:18:09.035Z,72.00
2023-11-18T01:20:35.842Z,66.68
2023-11-18T01:23:02.436Z,69.57
2023-11-18T01:25:29.343Z,70.00
2023-11-18T01:27:55.977Z,71.10
2023-11-18T01:30:24.818Z,76.90
2023-11-18T01:32:51.643Z,71.53
2023-11-18T01:35:18.445Z,71.40
2023-11-18T01:37:45.190Z,74.00
2023-11-18T01:40:16.671Z,74.63
2023-11-18T01:42:44.867Z,72.20
2023-11-18T01:45:13.032Z,66.20
2023-11-18T01:47:41.111Z,80.82
2023-11-18T01:50:10.323Z,70.80
2023-11-18T01:52:37.774Z,69.40
2023-11-18T01:55:08.271Z,72.33
2023-11-18T01:57:35.592Z,74.45
2023-11-18T02:00:09.835Z,75.88
2023-11-18T02:02:37.354Z,73.80
2023-11-18T02:05:07.295Z,67.97
2023-11-18T02:07:39.129Z,62.20
2023-11-18T02:10:10.347Z,60.60
2023-11-18T02:12:51.967Z,64.50
2023-11-18T02:15:19.935Z,63.53
2023-11-18T02:17:48.176Z,69.25
2023-11-18T02:20:18.041Z,69.57
2023-11-18T02:22:47.675Z,66.10
2023-11-18T02:25:19.357Z,70.90
2023-11-18T02:27:47.572Z,65.80
2023-11-18T02:30:18.482Z,62.05
2023-11-18T02:33:21.044Z,59.60
2023-11-18T02:35:58.489Z,59.63
2023-11-18T02:38:39.481Z,62.17
2023-11-18T02:41:13.911Z,54.03
2023-11-18T02:43:42.036Z,62.05
2023-11-18T02:46:10.599Z,57.77
2023-11-18T02:48:43.170Z,51.67
2023-11-18T02:51:10.667Z,57.65
2023-11-18T02:53:37.429Z,49.88
2023-11-18T02:56:05.997Z,52.90
2023-11-18T02:58:34.573Z,49.83
2023-11-18T03:01:01.179Z,48.90
2023-11-18T03:03:31.030Z,46.92
2023-11-18T03:05:58.080Z,48.60
2023-11-18T03:08:25.045Z,46.80
2023-11-18T03:10:53.830Z,46.73
2023-11-18T03:13:20.505Z,48.83
2023-11-18T03:15:49.436Z,48.08
2023-11-18T03:18:16.761Z,51.53
2023-11-18T03:20:43.613Z,42.97
2023-11-18T03:23:11.066Z,50.73
2023-11-18T03:25:39.797Z,43.15
2023-11-18T03:28:07.937Z,48.05
2023-11-18T03:30:38.528Z,44.97
2023-11-18T03:33:05.488Z,43.85
2023-11-18T03:35:32.548Z,52.63
2023-11-18T03:37:59.437Z,44.63
2023-11-18T03:40:26.236Z,45.58
2023-11-18T03:42:54.249Z,52.28
2023-11-18T03:45:22.127Z,57.97
2023-11-18T03:47:51.428Z,52.30
2023-11-18T03:50:18.469Z,42.42
2023-11-18T03:52:45.104Z,48.58
2023-11-18T03:55:12.056Z,49.00
2023-11-18T03:57:38.786Z,44.88
2023-11-18T04:00:07.975Z,50.23
2023-11-18T04:02:37.184Z,46.45
2023-11-18T04:05:05.124Z,47.03
2023-11-18T04:07:32.359Z,49.63
2023-11-18T04:09:59.228Z,53.28
2023-11-18T04:12:28.177Z,50.27
2023-11-18T04:14:55.028Z,49.58
2023-11-18T04:17:22.337Z,47.85
2023-11-18T04:19:49.375Z,40.90
2023-11-18T04:22:16.187Z,51.67
2023-11-18T04:24:43.274Z,54.20
2023-11-18T04:27:10.199Z,51.63
2023-11-18T04:29:38.877Z,48.72
2023-11-18T04:32:07.738Z,50.15
2023-11-18T04:34:37.783Z,53.05
2023-11-18T04:37:05.882Z,52.77
2023-11-18T04:39:35.838Z,50.88
2023-11-18T04:42:02.812Z,49.63
2023-11-18T04:44:29.569Z,50.55
2023-11-18T04:46:56.276Z,47.70
2023-11-18T04:49:23.136Z,53.70
2023-11-18T04:51:50.023Z,53.78
2023-11-18T04:54:16.578Z,52.50
2023-11-18T04:56:43.217Z,54.05
2023-11-18T04:59:10.240Z,52.80
2023-11-18T05:01:38.165Z,52.40
2023-11-18T05:04:05.402Z,47.58
2023-11-18T05:06:32.177Z,50.53
2023-11-18T05:08:59.085Z,47.83
2023-11-18T05:11:26.109Z,49.38
2023-11-18T05:13:52.758Z,53.33
2023-11-18T05:16:19.550Z,43.08
2023-11-18T05:18:46.406Z,46.40
2023-11-18T05:21:13.287Z,49.75
2023-11-18T05:23:40.151Z,47.35
2023-11-18T05:26:07.464Z,46.67
2023-11-18T05:28:34.700Z,47.00
2023-11-18T05:31:03.773Z,48.58
2023-11-18T05:33:31.346Z,41.58
2023-11-18T05:35:58.632Z,41.33
2023-11-18T05:38:29.098Z,44.00
2023-11-18T05:40:58.675Z,40.80
2023-11-18T05:43:43.373Z,44.42
2023-11-18T05:46:18.009Z,43.38
2023-11-18T05:48:48.657Z,38.15
2023-11-18T05:51:16.059Z,34.30
2023-11-18T05:53:47.374Z,36.00
2023-11-18T05:56:14.786Z,42.15
2023-11-18T05:58:41.670Z,31.85
2023-11-18T06:01:09.248Z,36.47
2023-11-18T06:03:40.750Z,37.50
2023-11-18T06:06:12.053Z,34.60
2023-11-18T06:08:42.582Z,39.75
2023-11-18T06:11:16.963Z,34.85
2023-11-18T06:13:47.989Z,36.70
2023-11-18T06:16:25.461Z,38.70
2023-11-18T06:18:56.878Z,33.10
2023-11-18T06:21:31.458Z,36.30
2023-11-18T06:23:59.982Z,33.53
2023-11-18T06:26:30.107Z,36.75
2023-11-18T06:28:58.435Z,33.43
2023-11-18T06:31:25.695Z,36.55
2023-11-18T06:33:53.925Z,34.15
2023-11-18T06:36:24.744Z,39.13
2023-11-18T06:38:53.098Z,34.28
2023-11-18T06:41:24.943Z,36.80
2023-11-18T06:43:58.440Z,27.85
2023-11-18T06:46:35.456Z,39.30
2023-11-18T06:49:08.188Z,29.15
2023-11-18T06:51:37.617Z,29.02
2023-11-18T06:54:14.533Z,29.00
2023-11-18T06:56:44.210Z,28.92
2023-11-18T06:59:16.445Z,35.92
2023-11-18T07:01:45.949Z,33.55
2023-11-18T07:04:13.368Z,27.60
2023-11-18T07:06:40.713Z,28.03
2023-11-18T07:09:14.438Z,29.10
2023-11-18T07:11:44.624Z,26.05
2023-11-18T07:14:12.642Z,26.90
2023-11-18T07:16:41.259Z,27.63
2023-11-18T07:19:08.731Z,29.17
2023-11-18T07:21:35.579Z,31.77
2023-11-18T07:24:03.684Z,28.17
2023-11-18T07:26:30.435Z,29.13
2023-11-18T07:28:59.905Z,27.42
2023-11-18T07:31:26.682Z,35.60
2023-11-18T07:33:53.730Z,33.22
2023-11-18T07:36:23.404Z,36.80
2023-11-18T07:38:53.253Z,22.38
2023-11-18T07:41:25.047Z,26.92
2023-11-18T07:43:53.987Z,24.03
2023-11-18T07:46:23.377Z,28.13
2023-11-18T07:48:53.873Z,31.52
2023-11-18T07:51:24.409Z,23.83
2023-11-18T07:53:52.313Z,26.63
2023-11-18T07:56:19.293Z,27.00
2023-11-18T07:58:49.258Z,28.50
2023-11-18T08:01:19.324Z,26.98
2023-11-18T08:03:46.501Z,24.50
2023-11-18T08:06:13.674Z,22.73
2023-11-18T08:08:42.026Z,25.00
2023-11-18T08:11:13.786Z,24.30
2023-11-18T08:13:41.319Z,36.85
2023-11-18T08:16:10.446Z,20.70
2023-11-18T08:18:37.728Z,25.70
2023-11-18T08:21:08.171Z,22.90
2023-11-18T08:23:35.071Z,21.88
2023-11-18T08:26:01.779Z,22.83
2023-11-18T08:28:28.631Z,20.90
2023-11-18T08:30:55.805Z,18.63
2023-11-18T08:33:25.554Z,19.20
2023-11-18T08:35:52.832Z,22.65
2023-11-18T08:38:21.172Z,25.33
2023-11-18T08:40:49.739Z,23.38
2023-11-18T08:43:17.877Z,20.83
2023-11-18T08:45:44.936Z,20.03
2023-11-18T08:48:12.055Z,17.98
2023-11-18T08:50:42.902Z,24.60
2023-11-18T08:53:11.430Z,23.23
2023-11-18T08:55:52.847Z,17.73
2023-11-18T08:58:30.226Z,22.90
2023-11-18T09:01:20.871Z,23.20
2023-11-18T09:03:54.215Z,17.60
2023-11-18T09:06:29.637Z,15.93
2023-11-18T09:08:59.526Z,21.30
2023-11-18T09:11:34.358Z,17.43
2023-11-18T09:14:02.686Z,21.23
2023-11-18T09:16:34.618Z,25.95
2023-11-18T09:19:03.717Z,14.27
2023-11-18T09:21:30.992Z,28.75
2023-11-18T09:23:58.310Z,23.63
2023-11-18T09:26:27.809Z,17.33
2023-11-18T09:28:54.587Z,19.23
2023-11-18T09:31:23.146Z,21.70
2023-11-18T09:33:58.697Z,21.60
2023-11-18T09:36:25.595Z,25.50
2023-11-18T09:38:52.223Z,20.25
2023-11-18T09:41:19.972Z,18.33
2023-11-18T09:43:49.105Z,20.00
2023-11-18T09:46:34.615Z,26.13
2023-11-18T09:49:16.636Z,23.07
2023-11-18T09:51:48.255Z,19.00
2023-11-18T09:54:34.057Z,19.40
2023-11-18T09:57:10.685Z,21.85
2023-11-18T10:00:40.796Z,20.30
2023-11-18T10:03:09.884Z,25.80
2023-11-18T10:05:38.063Z,21.63
2023-11-18T10:08:06.965Z,20.63
2023-11-18T10:10:39.620Z,19.55
2023-11-18T10:13:20.020Z,24.80
2023-11-18T10:15:51.829Z,15.10
2023-11-18T10:18:29.581Z,15.43
2023-11-18T10:20:56.206Z,19.67
2023-11-18T10:23:23.980Z,17.33
2023-11-18T10:25:59.389Z,27.83
2023-11-18T10:28:30.234Z,18.23
2023-11-18T10:31:05.279Z,13.15
2023-11-18T10:33:33.268Z,27.23
2023-11-18T10:36:05.116Z,16.30
2023-11-18T10:38:33.625Z,20.60
2023-11-18T10:41:03.445Z,18.43
2023-11-18T10:43:30.342Z,17.90
2023-11-18T10:46:13.779Z,22.48
2023-11-18T10:48:49.171Z,22.17
2023-11-18T10:51:20.850Z,22.27
2023-11-18T10:54:05.528Z,23.03
2023-11-18T10:56:34.263Z,17.25
2023-11-18T10:59:07.702Z,24.63
2023-11-18T11:01:40.108Z,17.73
2023-11-18T11:04:07.581Z,19.15
2023-11-18T11:06:35.336Z,21.70
2023-11-18T11:09:02.621Z,13.93
2023-11-18T11:11:40.695Z,25.13
2023-11-18T11:14:10.145Z,18.30
2023-11-18T11:16:46.231Z,20.67
2023-11-18T11:19:34.475Z,18.77
2023-11-18T11:22:16.312Z,17.33
2023-11-18T11:25:01.362Z,16.95
2023-11-18T11:27:41.292Z,19.50
2023-11-18T11:30:15.092Z,18.17
2023-11-18T11:32:55.260Z,16.77
2023-11-18T11:35:32.227Z,14.68
2023-11-18T11:38:10.686Z,17.15
2023-11-18T11:40:39.414Z,16.98
2023-11-18T11:43:10.850Z,13.70
2023-11-18T11:45:40.362Z,21.27
2023-11-18T11:48:21.032Z,15.27
2023-11-18T11:50:57.051Z,14.23
2023-11-18T11:53:28.186Z,18.08
2023-11-18T11:56:06.271Z,14.35
2023-11-18T11:58:40.431Z,14.47
2023-11-18T12:01:36.722Z,13.32
2023-11-18T12:04:11.792Z,16.60
2023-11-18T12:06:43.811Z,13.68
2023-11-18T12:09:11.408Z,15.60
2023-11-18T12:11:43.322Z,16.13
2023-11-18T12:14:26.005Z,14.38
2023-11-18T12:17:13.020Z,11.85
2023-11-18T12:19:50.682Z,13.73
2023-11-18T12:22:20.127Z,18.23
2023-11-18T12:25:16.481Z,13.33
2023-11-18T12:27:53.492Z,13.88
2023-11-18T12:30:27.673Z,17.30
2023-11-18T12:32:59.950Z,13.40
2023-11-18T12:35:29.382Z,16.70
2023-11-18T12:38:13.918Z,16.13
2023-11-18T12:40:56.032Z,11.85
2023-11-18T12:43:50.220Z,14.38
2023-11-18T12:46:46.034Z,11.23
2023-11-18T12:49:25.494Z,14.93
2023-11-18T12:51:53.813Z,10.33
2023-11-18T12:54:25.185Z,15.32
2023-11-18T12:56:55.290Z,9.77
2023-11-18T12:59:22.368Z,10.57
2023-11-18T13:01:58.669Z,13.13
2023-11-18T13:04:28.413Z,10.77
2023-11-18T13:06:59.123Z,11.05
2023-11-18T13:09:36.498Z,10.00
2023-11-18T13:12:05.729Z,15.18
2023-11-18T13:14:40.510Z,9.20
2023-11-18T13:17:12.673Z,12.33
2023-11-18T13:19:43.221Z,9.77
2023-11-18T13:22:12.539Z,12.57
2023-11-18T13:24:41.458Z,11.00
2023-11-18T13:27:10.387Z,10.20
2023-11-18T13:29:42.099Z,9.93
2023-11-18T13:32:11.744Z,10.02
2023-11-18T13:34:40.944Z,7.78
2023-11-18T13:37:08.656Z,11.27
2023-11-18T13:39:36.376Z,7.18
2023-11-18T13:42:24.971Z,8.10
2023-11-18T13:44:54.156Z,6.75
2023-11-18T13:47:21.813Z,8.73
2023-11-18T13:49:51.624Z,8.95
2023-11-18T13:52:20.620Z,8.18
2023-11-18T13:54:49.033Z,8.13
2023-11-18T13:57:16.161Z,11.10
2023-11-18T13:59:45.812Z,9.50
2023-11-18T14:02:13.562Z,8.68
2023-11-18T14:04:44.510Z,9.57
2023-11-18T14:07:17.246Z,8.87
2023-11-18T14:09:47.451Z,7.60
2023-11-18T14:12:15.215Z,8.90
2023-11-18T14:14:41.759Z,9.65
2023-11-18T14:17:11.568Z,10.65
2023-11-18T14:19:39.438Z,9.93
2023-11-18T14:22:10.715Z,8.57
2023-11-18T14:24:37.545Z,8.63
2023-11-18T14:27:08.916Z,9.00
2023-11-18T14:29:37.539Z,10.45
2023-11-18T14:32:04.899Z,11.73
2023-11-18T14:34:31.746Z,9.70
2023-11-18T14:36:58.856Z,10.45
2023-11-18T14:39:26.871Z,11.60
2023-11-18T14:41:55.042Z,9.93
2023-11-18T14:44:21.695Z,8.20
2023-11-18T14:46:54.060Z,11.35
2023-11-18T14:49:20.672Z,9.10
2023-11-18T14:51:48.181Z,10.35
2023-11-18T14:54:15.610Z,11.25
2023-11-18T14:56:42.271Z,10.37
2023-11-18T14:59:09.373Z,10.63
2023-11-18T15:01:36.198Z,10.52
2023-11-18T15:04:07.301Z,10.85
2023-11-18T15:06:34.081Z,11.90
2023-11-18T15:09:00.635Z,11.80
2023-11-18T15:11:27.872Z,12.82
2023-11-18T15:13:55.086Z,10.98
2023-11-18T15:16:22.012Z,19.75
2023-11-18T15:18:49.008Z,10.93
2023-11-18T15:21:16.813Z,9.73
2023-11-18T15:23:43.620Z,11.30
2023-11-18T15:26:11.141Z,9.60
2023-11-18T15:28:38.189Z,10.13
2023-11-18T15:31:05.904Z,13.95
2023-11-18T15:33:32.958Z,10.40
2023-11-18T15:36:00.177Z,11.38
2023-11-18T15:38:27.311Z,10.55
2023-11-18T15:40:54.816Z,9.95
2023-11-18T15:43:23.190Z,12.70
2023-11-18T15:45:50.016Z,9.77
2023-11-18T15:48:17.107Z,10.20
2023-11-18T15:50:55.133Z,8.50
2023-11-18T15:53:24.070Z,9.95
2023-11-18T15:55:54.127Z,10.35
2023-11-18T15:58:23.672Z,11.93
2023-11-18T16:00:53.770Z,12.13
2023-11-18T16:03:21.264Z,12.48
2023-11-18T16:05:48.284Z,14.43
2023-11-18T16:08:15.196Z,11.25
2023-11-18T16:10:42.284Z,13.27
2023-11-18T16:13:09.177Z,13.43
2023-11-18T16:15:37.184Z,14.45
2023-11-18T16:18:04.749Z,15.18
2023-11-18T16:20:33.893Z,17.58
2023-11-18T16:23:05.683Z,14.67
2023-11-18T16:25:35.563Z,15.68
2023-11-18T16:28:04.070Z,17.45
2023-11-18T16:30:32.267Z,19.48
2023-11-18T16:33:01.837Z,21.88
2023-11-18T16:35:30.469Z,20.17
2023-11-18T16:37:58.091Z,22.00
2023-11-18T16:40:25.964Z,24.00
2023-11-18T16:42:56.641Z,23.60
2023-11-18T16:45:26.213Z,26.83
2023-11-18T16:47:54.584Z,28.90
2023-11-18T16:50:24.423Z,29.73
2023-11-18T16:52:52.195Z,31.95
2023-11-18T16:55:22.364Z,33.35
2023-11-18T16:57:52.727Z,34.00
2023-11-18T17:00:23.968Z,35.67
2023-11-18T17:02:55.601Z,35.28
2023-11-18T17:05:26.424Z,36.35
2023-11-18T17:07:56.071Z,37.45
2023-11-18T17:10:24.355Z,36.33
2023-11-18T17:12:52.503Z,38.03
2023-11-18T17:15:20.222Z,36.05
2023-11-18T17:17:49.746Z,36.42
2023-11-18T17:20:18.081Z,31.92
2023-11-18T17:22:45.100Z,34.78
2023-11-18T17:25:24.747Z,34.67
2023-11-18T17:27:54.115Z,37.67
2023-11-18T17:30:20.904Z,40.80
2023-11-18T17:32:49.539Z,33.25
2023-11-18T17:35:19.610Z,33.17
2023-11-18T17:37:50.087Z,36.53
2023-11-18T17:40:17.617Z,36.50
2023-11-18T17:42:46.124Z,37.05
2023-11-18T17:45:14.966Z,38.83
2023-11-18T17:47:44.126Z,42.58
2023-11-18T17:50:19.709Z,37.37
2023-11-18T17:52:51.911Z,38.92
2023-11-18T17:55:19.714Z,36.90
2023-11-18T17:57:48.006Z,35.03
2023-11-18T18:00:21.856Z,38.38
2023-11-18T18:02:50.216Z,36.27
2023-11-18T18:05:18.057Z,40.50
2023-11-18T18:07:45.080Z,40.42
2023-11-18T18:10:13.683Z,38.35
2023-11-18T18:12:43.935Z,42.80
2023-11-18T18:15:12.634Z,37.17
2023-11-18T18:17:39.622Z,36.55
2023-11-18T18:20:10.744Z,41.30
2023-11-18T18:22:38.749Z,48.88
2023-11-18T18:25:09.114Z,41.38
2023-11-18T18:27:36.305Z,43.00
2023-11-18T18:30:03.795Z,43.75
2023-11-18T18:32:30.950Z,42.60
2023-11-18T18:34:58.704Z,41.47
2023-11-18T18:37:27.430Z,40.40
2023-11-18T18:39:55.410Z,39.87
2023-11-18T18:42:22.677Z,38.00
2023-11-18T18:44:49.767Z,42.00
2023-11-18T18:47:16.748Z,40.13
2023-11-18T18:49:43.668Z,37.33
2023-11-18T18:52:10.538Z,38.60
2023-11-18T18:54:37.250Z,39.40
2023-11-18T18:57:06.988Z,38.92
2023-11-18T18:59:33.656Z,44.38
2023-11-18T19:02:00.445Z,45.72
2023-11-18T19:04:27.538Z,47.43
2023-11-18T19:06:56.223Z,42.58
2023-11-18T19:09:23.229Z,46.50
2023-11-18T19:11:50.556Z,50.50
2023-11-18T19:14:18.871Z,51.65
2023-11-18T19:16:45.926Z,52.70
2023-11-18T19:19:13.169Z,55.60
2023-11-18T19:21:39.756Z,63.58
2023-11-18T19:24:06.733Z,68.07
2023-11-18T19:26:37.347Z,59.28
2023-11-18T19:29:04.551Z,54.90
2023-11-18T19:31:31.403Z,63.28
2023-11-18T19:33:59.718Z,54.50
2023-11-18T19:36:27.000Z,62.75
2023-11-18T19:38:57.051Z,52.50
2023-11-18T19:41:23.780Z,59.30
2023-11-18T19:43:51.491Z,56.45
2023-11-18T19:46:20.571Z,60.20
2023-11-18T19:48:48.344Z,62.80
2023-11-18T19:51:15.103Z,65.07
2023-11-18T19:53:42.327Z,63.97
2023-11-18T19:56:10.784Z,64.50
2023-11-18T19:58:37.604Z,64.53
2023-11-18T20:01:04.610Z,66.07
2023-11-18T20:03:31.313Z,67.50
2023-11-18T20:05:58.178Z,60.73
2023-11-18T20:08:25.255Z,59.40
2023-11-18T20:10:54.964Z,62.60
2023-11-18T20:13:21.776Z,53.70
2023-11-18T20:15:51.294Z,49.92
2023-11-18T20:18:19.841Z,48.13
2023-11-18T20:20:47.223Z,52.15
2023-11-18T20:23:13.952Z,41.15
2023-11-18T20:25:41.085Z,41.65
2023-11-18T20:28:08.081Z,42.53
2023-11-18T20:30:34.780Z,46.80
2023-11-18T20:33:01.526Z,42.33
2023-11-18T20:35:28.362Z,42.65
2023-11-18T20:37:54.904Z,38.65
2023-11-18T20:40:24.133Z,37.47
2023-11-18T20:42:51.671Z,41.33
2023-11-18T20:45:19.754Z,44.92
2023-11-18T20:47:48.025Z,42.53
2023-11-18T20:50:18.589Z,36.38
2023-11-18T20:52:46.110Z,33.33
2023-11-18T20:55:14.461Z,38.97
2023-11-18T20:57:41.812Z,42.70
2023-11-18T21:00:09.576Z,35.60
2023-11-18T21:02:37.293Z,37.35
2023-11-18T21:05:11.495Z,33.13
2023-11-18T21:07:38.816Z,36.57
2023-11-18T21:10:17.482Z,33.55
2023-11-18T21:12:44.894Z,40.63
2023-11-18T21:15:13.676Z,34.90
2023-11-18T21:17:41.681Z,29.92
2023-11-18T21:20:18.120Z,30.00
2023-11-18T21:22:51.554Z,31.45
2023-11-18T21:25:21.623Z,26.08
2023-11-18T21:27:52.931Z,29.17
2023-11-18T21:30:23.695Z,28.83
2023-11-18T21:32:51.463Z,22.07
2023-11-18T21:35:24.560Z,24.27
2023-11-18T21:37:52.045Z,23.05
2023-11-18T21:40:26.036Z,25.17
2023-11-18T21:42:56.329Z,22.05
2023-11-18T21:45:25.282Z,26.27
2023-11-18T21:47:53.167Z,24.27
2023-11-18T21:50:21.760Z,33.45
2023-11-18T21:52:52.103Z,34.72
2023-11-18T21:55:19.689Z,31.08
2023-11-18T21:57:47.249Z,32.93
2023-11-18T22:00:18.075Z,27.40
2023-11-18T22:02:46.650Z,27.77
2023-11-18T22:05:14.995Z,28.35
2023-11-18T22:07:48.754Z,29.70
2023-11-18T22:10:21.305Z,32.07
2023-11-18T22:12:50.631Z,25.17
2023-11-18T22:15:19.215Z,30.10
2023-11-18T22:17:46.730Z,29.30
2023-11-18T22:20:15.482Z,33.47
2023-11-18T22:22:43.126Z,30.83
2023-11-18T22:25:10.816Z,31.40
2023-11-18T22:27:41.622Z,32.75
2023-11-18T22:30:09.677Z,30.38
2023-11-18T22:32:39.063Z,31.73
2023-11-18T22:35:08.218Z,28.07
2023-11-18T22:37:36.237Z,33.95
2023-11-18T22:40:11.842Z,27.23
2023-11-18T22:42:40.587Z,31.88
2023-11-18T22:45:17.621Z,27.73
2023-11-18T22:47:46.200Z,27.80
2023-11-18T22:50:19.963Z,27.45
2023-11-18T22:52:47.143Z,27.38
2023-11-18T22:55:15.873Z,27.63
2023-11-18T22:57:44.309Z,27.00
2023-11-18T23:00:36.104Z,25.30
2023-11-18T23:03:07.675Z,19.98
2023-11-18T23:05:37.288Z,20.35
2023-11-18T23:08:09.382Z,20.95
2023-11-18T23:10:38.801Z,19.33
2023-11-18T23:13:06.894Z,20.07
2023-11-18T23:15:36.570Z,21.08
2023-11-18T23:18:05.504Z,23.38
2023-11-18T23:20:32.802Z,22.27
2023-11-18T23:23:01.133Z,18.23
2023-11-18T23:25:27.992Z,19.13
2023-11-18T23:30:24.913Z,18.88
2023-11-18T23:32:55.857Z,20.95
2023-11-18T23:35:22.655Z,20.00
2023-11-18T23:37:50.212Z,16.50
2023-11-18T23:40:16.963Z,20.17
2023-11-18T23:42:43.767Z,16.13
2023-11-18T23:45:16.397Z,22.35
2023-11-18T23:47:43.852Z,21.55
2023-11-18T23:50:14.287Z,19.13
2023-11-18T23:52:40.900Z,16.92
2023-11-18T23:55:14.016Z,21.83
2023-11-18T23:57:41.938Z,21.52
